Southwest Georgia Regional Airport
KABY : rendu visible

Aérodrome :











RETROUVEZ-NOUS SUR...

 
LOGIN :

S'inscrire | Disclaimer

   EN    FR    IT 

 









Légende :    VFR   VFR Marginal   IFR   IFR Intensif   IFR Très Intensif
Visi : 
Plafond : 
>= 8 km
>= 3000ft
5 à 8 km
1000 à 3000 ft
1500m à 5 km
500 à 1000 ft
800 à 1500m
200 à 500 ft
< 800m
< 200 ft
Symboles :   Orages  Brouillard  Fortes neiges  Fortes précipitations  Vent > 20 kt






- Altitude de l'aérodrome : 197 ft
- Code IATA : ABY


KABY - Southwest Georgia Regional

DERNIER METAR :
  • 030853Z AUTO 00000KT 9SM CLR 25/24 A2992 RMK AO2 SLP129 T02500239 57003

METARs EXPIRÉS :
  • 030753Z AUTO 00000KT 10SM CLR 25/24 A2993 RMK AO2 SLP131 T02500239
  • 030653Z AUTO 33003KT 10SM FEW050 26/24 A2992 RMK AO2 SLP130 T02560239

TAF KABY
Valide du 03 à 06h jusqu'au 04 à 06h UTC


030540Z 0306/0406 33003KT P6SM SKC
FM031400 07006KT P6SM SCT040
FM031800 09006KT P6SM VCTS BKN040CB
TEMPO 0319/0323 VRB15G25KT 4SM TSRA BKN035CB
FIR KZJX / Amérique du Nord



MET'MAP, la Météo Aéronautique d'un coup d'oeil ! - Copyright ORBIFLY Décembre 2007 - Disclaimer

ORBIFLY MET'MAP TEAM :

Programmation & Développement : Alexandra Zaïnal
Sur une idée originale de : Baudouin d'Aumeries
Assistance à la programmation : Marc-Olivier Méhu
Soutien technique & logistique : Manuel Goepfert

Contact : metmap@orbifly.com




SOURCES & CREDITS :

   NOAA       Earth
Advisory